createdAt,value
2022-10-24T00:01:47.873Z,22.44
2022-10-24T00:04:16.264Z,22.45
2022-10-24T00:06:44.731Z,22.44
2022-10-24T00:09:13.130Z,22.45
2022-10-24T00:11:43.040Z,22.44
2022-10-24T00:14:11.668Z,22.45
2022-10-24T00:16:41.457Z,22.45
2022-10-24T00:19:09.873Z,22.44
2022-10-24T00:21:38.353Z,22.45
2022-10-24T00:24:07.493Z,22.44
2022-10-24T00:26:36.091Z,22.44
2022-10-24T00:29:05.038Z,22.45
2022-10-24T00:31:33.689Z,22.45
2022-10-24T00:34:05.216Z,22.44
2022-10-24T00:36:33.670Z,22.44
2022-10-24T00:39:02.663Z,22.44
2022-10-24T00:41:34.675Z,22.45
2022-10-24T00:44:15.165Z,22.44
2022-10-24T00:46:47.362Z,22.45
2022-10-24T00:49:20.006Z,22.44
2022-10-24T00:51:51.928Z,22.45
2022-10-24T00:54:20.743Z,22.44
2022-10-24T00:56:59.492Z,22.44
2022-10-24T00:59:29.024Z,22.44
2022-10-24T01:01:57.788Z,22.44
2022-10-24T01:04:29.490Z,22.44
2022-10-24T01:07:08.600Z,22.44
2022-10-24T01:09:53.921Z,22.44
2022-10-24T01:12:34.209Z,22.44
2022-10-24T01:15:10.294Z,22.43
2022-10-24T01:17:46.238Z,22.44
2022-10-24T01:20:40.796Z,22.44
2022-10-24T01:23:24.537Z,22.44
2022-10-24T01:26:02.080Z,22.43
2022-10-24T01:28:35.941Z,22.44
2022-10-24T01:31:10.724Z,22.44
2022-10-24T01:33:43.382Z,22.44
2022-10-24T01:36:16.965Z,22.43
2022-10-24T01:38:48.937Z,22.43
2022-10-24T01:41:21.024Z,22.44
2022-10-24T01:46:32.874Z,22.42
2022-10-24T01:49:10.930Z,22.44
2022-10-24T01:51:40.666Z,22.44
2022-10-24T01:54:11.154Z,22.44
2022-10-24T01:56:39.662Z,22.44
2022-10-24T01:59:09.711Z,22.45
2022-10-24T02:01:40.240Z,22.45
2022-10-24T02:04:12.851Z,22.44
2022-10-24T02:06:43.426Z,22.45
2022-10-24T02:09:17.296Z,22.43
2022-10-24T02:11:48.597Z,22.44
2022-10-24T02:14:22.299Z,22.43
2022-10-24T02:16:52.471Z,22.44
2022-10-24T02:19:22.078Z,22.43
2022-10-24T02:21:56.450Z,22.44
2022-10-24T02:24:28.396Z,22.45
2022-10-24T02:26:59.560Z,22.42
2022-10-24T02:29:33.567Z,22.43
2022-10-24T02:32:08.449Z,22.42
2022-10-24T02:34:39.541Z,22.43
2022-10-24T02:37:10.765Z,22.43
2022-10-24T02:39:41.665Z,22.43
2022-10-24T02:42:12.989Z,22.43
2022-10-24T02:44:43.291Z,22.43
2022-10-24T02:47:14.918Z,22.42
2022-10-24T02:49:44.047Z,22.42
2022-10-24T02:52:13.047Z,22.43
2022-10-24T02:54:41.437Z,22.42
2022-10-24T02:57:09.971Z,22.42
2022-10-24T02:59:38.357Z,22.42
2022-10-24T03:02:06.831Z,22.42
2022-10-24T03:04:36.566Z,22.42
2022-10-24T03:07:04.969Z,22.43
2022-10-24T03:09:33.373Z,22.43
2022-10-24T03:12:01.927Z,22.42
2022-10-24T03:14:30.335Z,22.42
2022-10-24T03:16:58.774Z,22.42
2022-10-24T03:19:27.224Z,22.43
2022-10-24T03:21:57.004Z,22.43
2022-10-24T03:24:36.983Z,22.43
2022-10-24T03:27:12.976Z,22.43
2022-10-24T03:29:41.523Z,22.43
2022-10-24T03:32:09.932Z,22.43
2022-10-24T03:34:38.441Z,22.42
2022-10-24T03:37:08.255Z,22.42
2022-10-24T03:39:36.726Z,22.40
2022-10-24T03:42:05.440Z,22.40
2022-10-24T03:44:33.904Z,22.40
2022-10-24T03:47:02.440Z,22.41
2022-10-24T03:49:32.187Z,22.40
2022-10-24T03:52:00.584Z,22.41
2022-10-24T03:54:30.374Z,22.41
2022-10-24T03:56:58.780Z,22.40
2022-10-24T03:59:27.213Z,22.41
2022-10-24T04:01:55.713Z,22.41
2022-10-24T04:04:24.292Z,22.42
2022-10-24T04:06:52.690Z,22.41
2022-10-24T04:09:22.029Z,22.41
2022-10-24T04:11:53.409Z,22.41
2022-10-24T04:14:22.148Z,22.41
2022-10-24T04:16:50.863Z,22.43
2022-10-24T04:19:19.400Z,22.41
2022-10-24T04:21:48.142Z,22.43
2022-10-24T04:24:17.011Z,22.42
2022-10-24T04:26:45.613Z,22.42
2022-10-24T04:29:15.451Z,22.42
2022-10-24T04:31:43.861Z,22.42
2022-10-24T04:34:12.288Z,22.42
2022-10-24T04:36:40.704Z,22.43
2022-10-24T04:39:09.180Z,22.43
2022-10-24T04:41:37.588Z,22.43
2022-10-24T04:44:06.209Z,22.42
2022-10-24T04:46:35.993Z,22.42
2022-10-24T04:49:04.901Z,22.42
2022-10-24T04:51:33.296Z,22.42
2022-10-24T04:54:01.682Z,22.42
2022-10-24T04:56:30.116Z,22.42
2022-10-24T04:58:58.527Z,22.42
2022-10-24T05:01:27.049Z,22.42
2022-10-24T05:03:56.928Z,22.42
2022-10-24T05:06:25.387Z,22.42
2022-10-24T05:08:53.876Z,22.42
2022-10-24T05:11:22.353Z,22.42
2022-10-24T05:13:50.761Z,22.44
2022-10-24T05:16:19.169Z,22.44
2022-10-24T05:18:47.575Z,22.44
2022-10-24T05:21:17.484Z,22.45
2022-10-24T05:23:45.871Z,22.45
2022-10-24T05:26:14.337Z,22.46
2022-10-24T05:28:42.740Z,22.45
2022-10-24T05:31:11.178Z,22.46
2022-10-24T05:33:39.668Z,22.45
2022-10-24T05:36:08.845Z,22.47
2022-10-24T05:38:38.652Z,22.46
2022-10-24T05:41:07.025Z,22.47
2022-10-24T05:43:35.508Z,22.49
2022-10-24T05:46:04.295Z,22.48
2022-10-24T05:48:32.671Z,22.49
2022-10-24T05:51:01.159Z,22.49
2022-10-24T05:53:29.556Z,22.49
2022-10-24T05:55:59.297Z,22.50
2022-10-24T05:58:27.744Z,22.50
2022-10-24T06:00:56.146Z,22.47
2022-10-24T06:03:25.124Z,22.43
2022-10-24T06:05:53.824Z,22.40
2022-10-24T06:08:22.292Z,22.34
2022-10-24T06:10:51.959Z,22.32
2022-10-24T06:13:21.726Z,22.33
2022-10-24T06:15:50.146Z,22.33
2022-10-24T06:18:18.580Z,22.31
2022-10-24T06:20:47.023Z,22.31
2022-10-24T06:23:15.389Z,22.32
2022-10-24T06:26:00.765Z,22.33
2022-10-24T06:28:34.608Z,22.34
2022-10-24T06:31:03.815Z,22.32
2022-10-24T06:33:32.414Z,22.33
2022-10-24T06:36:01.821Z,22.34
2022-10-24T06:38:30.266Z,22.35
2022-10-24T06:40:58.738Z,22.38
2022-10-24T06:43:27.144Z,22.38
2022-10-24T06:45:57.178Z,22.41
2022-10-24T06:48:25.829Z,22.42
2022-10-24T06:50:54.254Z,22.43
2022-10-24T06:53:22.673Z,22.43
2022-10-24T06:55:51.179Z,22.45
2022-10-24T06:58:19.625Z,22.43
2022-10-24T07:00:48.132Z,22.44
2022-10-24T07:03:18.018Z,22.42
2022-10-24T07:05:46.415Z,22.42
2022-10-24T07:08:14.873Z,22.40
2022-10-24T07:10:43.234Z,22.40
2022-10-24T07:13:11.630Z,22.41
2022-10-24T07:15:40.051Z,22.42
2022-10-24T07:18:08.432Z,22.41
2022-10-24T07:23:07.585Z,22.44
2022-10-24T07:25:36.024Z,22.49
2022-10-24T07:28:04.724Z,22.53
2022-10-24T07:30:33.275Z,22.54
2022-10-24T07:33:01.845Z,22.58
2022-10-24T07:35:30.474Z,22.60
2022-10-24T07:38:00.283Z,22.62
2022-10-24T07:40:28.735Z,22.63
2022-10-24T07:42:57.117Z,22.64
2022-10-24T07:45:25.598Z,22.66
2022-10-24T07:47:54.014Z,22.68
2022-10-24T07:50:22.396Z,22.68
2022-10-24T07:52:50.759Z,22.68
2022-10-24T07:55:20.559Z,22.70
2022-10-24T07:57:48.981Z,22.69
2022-10-24T08:00:18.115Z,22.70
2022-10-24T08:02:46.560Z,22.71
2022-10-24T08:05:17.135Z,22.71
2022-10-24T08:08:00.307Z,22.71
2022-10-24T08:10:39.113Z,22.74
2022-10-24T08:13:10.359Z,22.77
2022-10-24T08:15:42.233Z,22.78
2022-10-24T08:18:10.671Z,22.81
2022-10-24T08:20:39.066Z,22.81
2022-10-24T08:23:07.495Z,22.83
2022-10-24T08:25:35.860Z,22.81
2022-10-24T08:28:08.233Z,22.83
2022-10-24T08:30:37.608Z,22.84
2022-10-24T08:33:06.053Z,22.83
2022-10-24T08:35:34.456Z,22.85
2022-10-24T08:38:02.861Z,22.85
2022-10-24T08:40:31.437Z,22.85
2022-10-24T08:42:59.838Z,22.86
2022-10-24T08:45:35.224Z,22.85
2022-10-24T08:48:08.580Z,22.84
2022-10-24T08:50:38.710Z,22.82
2022-10-24T08:53:10.485Z,22.81
2022-10-24T08:55:49.145Z,22.79
2022-10-24T08:58:22.340Z,22.79
2022-10-24T09:00:54.704Z,22.77
2022-10-24T09:03:43.974Z,22.74
2022-10-24T09:06:19.421Z,22.72
2022-10-24T09:08:52.814Z,22.69
2022-10-24T09:11:27.305Z,22.65
2022-10-24T09:13:56.075Z,22.66
2022-10-24T09:16:27.586Z,22.65
2022-10-24T09:18:58.038Z,22.63
2022-10-24T09:21:27.386Z,22.64
2022-10-24T09:23:56.212Z,22.62
2022-10-24T09:28:57.039Z,22.63
2022-10-24T09:31:28.372Z,22.64
2022-10-24T09:34:00.375Z,22.63
2022-10-24T09:36:31.059Z,22.64
2022-10-24T09:39:34.516Z,22.63
2022-10-24T09:42:04.434Z,22.63
2022-10-24T09:44:39.159Z,22.62
2022-10-24T09:47:22.748Z,22.62
2022-10-24T09:49:51.361Z,22.62
2022-10-24T09:52:22.372Z,22.62
2022-10-24T09:55:07.235Z,22.63
2022-10-24T09:57:40.625Z,22.62
2022-10-24T10:00:22.871Z,22.62
2022-10-24T10:03:23.590Z,22.62
2022-10-24T10:05:55.067Z,22.63
2022-10-24T10:11:13.411Z,22.60
2022-10-24T10:13:49.823Z,22.59
2022-10-24T10:16:24.909Z,22.58
2022-10-24T10:19:02.113Z,22.57
2022-10-24T10:21:55.179Z,22.56
2022-10-24T10:24:36.960Z,22.54
2022-10-24T10:27:27.309Z,22.51
2022-10-24T10:30:19.634Z,22.50
2022-10-24T10:33:06.776Z,22.49
2022-10-24T10:35:43.764Z,22.50
2022-10-24T10:38:28.885Z,22.49
2022-10-24T10:41:04.381Z,22.49
2022-10-24T10:43:42.684Z,22.46
2022-10-24T10:46:21.768Z,22.45
2022-10-24T10:49:02.410Z,22.45
2022-10-24T10:51:41.486Z,22.45
2022-10-24T10:54:27.490Z,22.43
2022-10-24T10:57:00.497Z,22.42
2022-10-24T10:59:45.588Z,22.41
2022-10-24T11:02:36.811Z,22.41
2022-10-24T11:05:17.987Z,22.41
2022-10-24T11:07:51.681Z,22.40
2022-10-24T11:10:23.459Z,22.40
2022-10-24T11:12:53.203Z,22.39
2022-10-24T11:15:27.432Z,22.39
2022-10-24T11:17:59.959Z,22.39
2022-10-24T11:20:33.064Z,22.39
2022-10-24T11:23:08.223Z,22.41
2022-10-24T11:25:41.049Z,22.45
2022-10-24T11:28:24.349Z,22.49
2022-10-24T11:30:59.767Z,22.50
2022-10-24T11:33:31.754Z,22.53
2022-10-24T11:36:07.956Z,22.53
2022-10-24T11:38:43.864Z,22.53
2022-10-24T11:41:36.435Z,22.56
2022-10-24T11:44:15.888Z,22.58
2022-10-24T11:46:54.299Z,22.59
2022-10-24T11:49:26.735Z,22.63
2022-10-24T11:52:00.413Z,22.65
2022-10-24T11:54:34.930Z,22.67
2022-10-24T11:57:06.947Z,22.69
2022-10-24T11:59:38.457Z,22.71
2022-10-24T12:02:44.075Z,22.73
2022-10-24T12:05:28.626Z,22.71
2022-10-24T12:08:26.426Z,22.70
2022-10-24T12:11:11.277Z,22.68
2022-10-24T12:13:51.318Z,22.68
2022-10-24T12:16:33.966Z,22.68
2022-10-24T12:19:06.571Z,22.67
2022-10-24T12:21:40.738Z,22.67
2022-10-24T12:24:22.030Z,22.67
2022-10-24T12:26:56.993Z,22.66
2022-10-24T12:29:27.937Z,22.66
2022-10-24T12:31:56.360Z,22.67
2022-10-24T12:34:48.855Z,22.68
2022-10-24T12:37:35.745Z,22.68
2022-10-24T12:40:46.254Z,22.68
2022-10-24T12:43:16.845Z,22.68
2022-10-24T12:45:45.313Z,22.68
2022-10-24T12:48:26.548Z,22.68
2022-10-24T12:51:05.106Z,22.68
2022-10-24T12:53:39.501Z,22.69
2022-10-24T12:56:22.370Z,22.68
2022-10-24T12:58:59.545Z,22.69
2022-10-24T13:01:33.300Z,22.68
2022-10-24T13:04:29.485Z,22.69
2022-10-24T13:07:13.254Z,22.68
2022-10-24T13:09:50.525Z,22.69
2022-10-24T13:12:37.099Z,22.70
2022-10-24T13:15:25.974Z,22.69
2022-10-24T13:18:16.940Z,22.69
2022-10-24T13:20:47.238Z,22.70
2022-10-24T13:23:25.527Z,22.67
2022-10-24T13:25:56.503Z,22.68
2022-10-24T13:28:40.920Z,22.68
2022-10-24T13:31:41.788Z,22.66
2022-10-24T13:34:30.136Z,22.65
2022-10-24T13:37:03.615Z,22.65
2022-10-24T13:39:39.574Z,22.64
2022-10-24T13:42:23.918Z,22.63
2022-10-24T13:44:56.945Z,22.63
2022-10-24T13:47:30.652Z,22.62
2022-10-24T13:50:02.142Z,22.62
2022-10-24T13:52:37.918Z,22.61
2022-10-24T13:55:21.661Z,22.61
2022-10-24T13:57:57.246Z,22.60
2022-10-24T14:00:27.969Z,22.63
2022-10-24T14:02:59.575Z,22.62
2022-10-24T14:05:35.241Z,22.64
2022-10-24T14:08:04.859Z,22.70
2022-10-24T14:10:35.100Z,22.70
2022-10-24T14:13:05.076Z,22.73
2022-10-24T14:15:34.244Z,22.75
2022-10-24T14:18:04.572Z,22.76
2022-10-24T14:20:35.456Z,22.75
2022-10-24T14:23:16.340Z,22.74
2022-10-24T14:25:46.326Z,22.73
2022-10-24T14:28:17.326Z,22.73
2022-10-24T14:30:54.745Z,22.76
2022-10-24T14:33:25.979Z,22.77
2022-10-24T14:35:57.974Z,22.76
2022-10-24T14:38:28.690Z,22.78
2022-10-24T14:41:08.965Z,22.81
2022-10-24T14:43:41.957Z,22.80
2022-10-24T14:46:33.732Z,22.81
2022-10-24T14:49:20.667Z,22.83
2022-10-24T14:54:28.124Z,22.85
2022-10-24T14:56:59.693Z,22.86
2022-10-24T14:59:33.081Z,22.86
2022-10-24T15:02:04.683Z,22.87
2022-10-24T15:04:39.483Z,22.89
2022-10-24T15:07:20.911Z,22.89
2022-10-24T15:09:54.731Z,22.89
2022-10-24T15:12:38.398Z,22.90
2022-10-24T15:15:23.090Z,22.90
2022-10-24T15:17:52.865Z,22.92
2022-10-24T15:20:24.029Z,22.92
2022-10-24T15:22:57.296Z,22.95
2022-10-24T15:25:30.302Z,22.96
2022-10-24T15:28:01.114Z,22.96
2022-10-24T15:30:31.654Z,22.96
2022-10-24T15:33:02.743Z,22.94
2022-10-24T15:35:35.306Z,22.94
2022-10-24T15:38:11.474Z,22.96
2022-10-24T15:40:43.062Z,22.95
2022-10-24T15:43:14.809Z,22.95
2022-10-24T15:45:43.357Z,22.95
2022-10-24T15:48:11.861Z,22.91
2022-10-24T15:50:45.870Z,22.88
2022-10-24T15:53:18.197Z,22.76
2022-10-24T15:55:46.619Z,22.67
2022-10-24T15:58:18.493Z,22.57
2022-10-24T16:00:46.979Z,22.46
2022-10-24T16:03:20.553Z,22.46
2022-10-24T16:05:52.417Z,22.48
2022-10-24T16:08:21.497Z,22.50
2022-10-24T16:10:51.477Z,22.51
2022-10-24T16:13:23.073Z,22.51
2022-10-24T16:15:51.656Z,22.51
2022-10-24T16:18:20.185Z,22.51
2022-10-24T16:20:48.646Z,22.53
2022-10-24T16:23:17.711Z,22.52
2022-10-24T16:25:46.495Z,22.52
2022-10-24T16:28:15.671Z,22.52
2022-10-24T16:30:46.619Z,22.51
2022-10-24T16:33:17.225Z,22.51
2022-10-24T16:35:45.677Z,22.51
2022-10-24T16:38:14.686Z,22.50
2022-10-24T16:40:46.265Z,22.48
2022-10-24T16:43:16.685Z,22.46
2022-10-24T16:45:48.854Z,22.42
2022-10-24T16:48:17.253Z,22.39
2022-10-24T16:50:46.607Z,22.37
2022-10-24T16:53:18.212Z,22.37
2022-10-24T16:55:50.514Z,22.37
2022-10-24T16:58:19.542Z,22.38
2022-10-24T17:00:49.830Z,22.40
2022-10-24T17:03:18.476Z,22.40
2022-10-24T17:05:49.699Z,22.41
2022-10-24T17:08:18.122Z,22.40
2022-10-24T17:10:46.625Z,22.41
2022-10-24T17:13:15.062Z,22.41
2022-10-24T17:15:43.461Z,22.41
2022-10-24T17:18:13.499Z,22.42
2022-10-24T17:20:44.328Z,22.41
2022-10-24T17:23:13.763Z,22.41
2022-10-24T17:25:43.589Z,22.41
2022-10-24T17:28:13.727Z,22.41
2022-10-24T17:30:42.791Z,22.41
2022-10-24T17:33:13.753Z,22.41
2022-10-24T17:35:47.045Z,22.40
2022-10-24T17:38:30.248Z,22.39
2022-10-24T17:41:04.439Z,22.34
2022-10-24T17:43:33.289Z,22.35
2022-10-24T17:46:02.228Z,22.33
2022-10-24T17:48:32.334Z,22.33
2022-10-24T17:51:02.119Z,22.32
2022-10-24T17:53:30.593Z,22.33
2022-10-24T17:55:59.073Z,22.31
2022-10-24T17:58:27.512Z,22.31
2022-10-24T18:00:56.145Z,22.32
2022-10-24T18:03:24.807Z,22.30
2022-10-24T18:05:59.082Z,22.25
2022-10-24T18:08:27.572Z,22.15
2022-10-24T18:11:00.690Z,22.07
2022-10-24T18:13:29.360Z,22.00
2022-10-24T18:15:57.769Z,21.96
2022-10-24T18:18:26.321Z,21.94
2022-10-24T18:21:06.782Z,21.94
2022-10-24T18:23:35.691Z,21.94
2022-10-24T18:26:07.685Z,21.95
2022-10-24T18:28:38.767Z,21.96
2022-10-24T18:31:09.230Z,21.99
2022-10-24T18:33:37.821Z,22.01
2022-10-24T18:36:09.303Z,22.02
2022-10-24T18:38:39.692Z,22.03
2022-10-24T18:41:24.991Z,22.06
2022-10-24T18:43:53.978Z,22.09
2022-10-24T18:46:23.343Z,22.13
2022-10-24T18:48:52.670Z,22.16
2022-10-24T18:51:30.737Z,22.18
2022-10-24T18:54:04.401Z,22.19
2022-10-24T18:56:33.521Z,22.22
2022-10-24T18:59:02.184Z,22.23
2022-10-24T19:01:38.583Z,22.25
2022-10-24T19:04:16.650Z,22.25
2022-10-24T19:06:48.319Z,22.27
2022-10-24T19:09:18.562Z,22.28
2022-10-24T19:11:48.762Z,22.29
2022-10-24T19:14:17.662Z,22.31
2022-10-24T19:16:47.808Z,22.33
2022-10-24T19:19:22.130Z,22.32
2022-10-24T19:21:51.976Z,22.31
2022-10-24T19:24:20.524Z,22.31
2022-10-24T19:26:49.830Z,22.31
2022-10-24T19:29:18.309Z,22.31
2022-10-24T19:31:46.933Z,22.32
2022-10-24T19:34:15.366Z,22.37
2022-10-24T19:36:43.847Z,22.39
2022-10-24T19:39:13.630Z,22.47
2022-10-24T19:41:42.342Z,22.53
2022-10-24T19:44:10.814Z,22.58
2022-10-24T19:46:39.249Z,22.60
2022-10-24T19:49:08.094Z,22.62
2022-10-24T19:51:36.648Z,22.62
2022-10-24T19:54:05.197Z,22.64
2022-10-24T19:56:34.957Z,22.64
2022-10-24T19:59:03.406Z,22.64
2022-10-24T20:01:32.058Z,22.65
2022-10-24T20:04:01.350Z,22.64
2022-10-24T20:06:29.782Z,22.65
2022-10-24T20:08:58.190Z,22.65
2022-10-24T20:11:26.578Z,22.67
2022-10-24T20:13:56.474Z,22.66
2022-10-24T20:16:24.890Z,22.67
2022-10-24T20:18:53.339Z,22.66
2022-10-24T20:21:21.805Z,22.66
2022-10-24T20:23:50.309Z,22.66
2022-10-24T20:26:20.376Z,22.67
2022-10-24T20:28:50.995Z,22.67
2022-10-24T20:31:23.378Z,22.66
2022-10-24T20:33:52.210Z,22.67
2022-10-24T20:36:21.755Z,22.67
2022-10-24T20:38:50.502Z,22.66
2022-10-24T20:41:18.965Z,22.68
2022-10-24T20:43:47.470Z,22.67
2022-10-24T20:46:15.890Z,22.67
2022-10-24T20:48:45.793Z,22.66
2022-10-24T20:51:15.700Z,22.67
2022-10-24T20:53:44.580Z,22.67
2022-10-24T20:56:14.772Z,22.66
2022-10-24T20:58:45.100Z,22.67
2022-10-24T21:01:15.463Z,22.65
2022-10-24T21:03:45.793Z,22.65
2022-10-24T21:06:19.517Z,22.63
2022-10-24T21:08:49.495Z,22.63
2022-10-24T21:11:24.975Z,22.61
2022-10-24T21:13:54.887Z,22.60
2022-10-24T21:16:24.374Z,22.59
2022-10-24T21:18:54.684Z,22.58
2022-10-24T21:21:23.949Z,22.57
2022-10-24T21:23:52.950Z,22.57
2022-10-24T21:26:21.729Z,22.56
2022-10-24T21:28:53.872Z,22.55
2022-10-24T21:31:26.035Z,22.53
2022-10-24T21:33:55.964Z,22.52
2022-10-24T21:36:25.470Z,22.53
2022-10-24T21:38:56.298Z,22.51
2022-10-24T21:41:26.480Z,22.51
2022-10-24T21:43:55.270Z,22.52
2022-10-24T21:46:25.435Z,22.51
2022-10-24T21:48:56.541Z,22.51
2022-10-24T21:51:26.972Z,22.50
2022-10-24T21:53:57.147Z,22.50
2022-10-24T21:56:27.073Z,22.50
2022-10-24T21:58:59.593Z,22.50
2022-10-24T22:01:30.738Z,22.50
2022-10-24T22:04:01.793Z,22.49
2022-10-24T22:06:31.402Z,22.50
2022-10-24T22:09:00.194Z,22.49
2022-10-24T22:11:31.564Z,22.50
2022-10-24T22:14:00.592Z,22.48
2022-10-24T22:16:31.087Z,22.49
2022-10-24T22:19:02.645Z,22.48
2022-10-24T22:21:32.952Z,22.50
2022-10-24T22:24:03.147Z,22.49
2022-10-24T22:26:31.657Z,22.50
2022-10-24T22:29:00.473Z,22.48
2022-10-24T22:31:30.672Z,22.48
2022-10-24T22:34:00.915Z,22.48
2022-10-24T22:36:48.329Z,22.48
2022-10-24T22:39:18.697Z,22.48
2022-10-24T22:41:48.477Z,22.47
2022-10-24T22:44:20.378Z,22.48
2022-10-24T22:47:04.752Z,22.49
2022-10-24T22:49:43.476Z,22.48
2022-10-24T22:52:12.893Z,22.47
2022-10-24T22:54:41.871Z,22.47
2022-10-24T22:57:11.027Z,22.47
2022-10-24T22:59:39.978Z,22.46
2022-10-24T23:02:23.903Z,22.47
2022-10-24T23:05:03.644Z,22.46
2022-10-24T23:07:42.489Z,22.46
2022-10-24T23:10:13.888Z,22.46
2022-10-24T23:12:42.933Z,22.47
2022-10-24T23:15:14.676Z,22.46
2022-10-24T23:17:44.118Z,22.46
2022-10-24T23:20:27.568Z,22.45
2022-10-24T23:23:09.463Z,22.45
2022-10-24T23:25:52.394Z,22.46
2022-10-24T23:28:28.824Z,22.45
2022-10-24T23:30:57.938Z,22.45
2022-10-24T23:33:29.229Z,22.46
2022-10-24T23:36:00.990Z,22.44
2022-10-24T23:38:29.927Z,22.45
2022-10-24T23:40:58.722Z,22.45
2022-10-24T23:43:27.656Z,22.45
2022-10-24T23:46:00.833Z,22.45
2022-10-24T23:48:44.936Z,22.44
2022-10-24T23:51:18.382Z,22.43
2022-10-24T23:53:50.226Z,22.44
2022-10-24T23:56:20.790Z,22.44
2022-10-24T23:58:49.894Z,22.45
